Nathaniel B. Palmer — WBP3210 — position and weather

sailwx.info

Track history (hours):
 
Tides and Currents Weather Stations Pressure Air Temp Water Temp Dewpoint Dewpoint Depression Visibility Wind Speed Wind Dir Waves Ship Positions

Oceanographic research ship Nathaniel B. Palmer (USA)

Contact: Ethan Norris, ethan.norris.contractor@usap.gov

Detailed information on ship capabilities available from University of Delaware's Ocean Information Center and ARCUS's ALIAS (Arctic Logistics Information and Support) project.

Owner: OFFSHORE SERVICE VESSELS, GALLIANO, LA. More information available from US FCC via Universal Licensing System and Coast Guard Vessel Documentation Center.

Last reported at 2015-Jan-19 08:00 UTC. Time now 2015-Jan-30 06:18 UTC.
Position S 77°00' E 168°36'.
Warning: this ship's position is 10 days out of date.

Type: Other ship. MMSI: 366610000.

Wind from 330 at 3 knots

Barometer 984.4 mb
Air temperature -2.1 ° C
Water temperature 1.1 ° C

Date/timePositionNaut miles runAvg speedWind from/ knotsBaromVisibWave heightAir tempDewpointWater temp
2015-Jan-19 08:00S 77°00' E 168°36'34 8.6 330 / 3984.4 -2.1 1.1
2015-Jan-19 04:00S 76°54' E 171°06'2010.2 190 / 34979.8 -5.7 1.1
2015-Jan-19 02:00S 76°54' E 172°36'19 9.5 180 / 25979.6 -4.4 1.1
2015-Jan-19 00:00S 76°54' E 174°00'19 9.5 150 / 21979.5 -2.1 1.1
2015-Jan-18 22:00S 76°54' E 175°24'132 9.4 130 / 21978.8 -1.2 0.8
2015-Jan-18 08:00S 77°00' W 174°54'37 9.3 120 / 19983.3 -2.1 1.2
2015-Jan-18 04:00S 76°42' W 172°30'19 9.5 130 / 17984.6 -2.2 1.3
2015-Jan-18 02:00S 76°36' W 171°12'18 8.9 130 / 18985.6 -2.1 0.7
2015-Jan-18 00:00S 76°30' W 170°00'19 9.6 130 / 15986.6 -2.1 1.0
2015-Jan-17 22:00S 76°24' W 168°42'19 9.7 140 / 14987.3 -2.0 0.8
2015-Jan-17 20:00S 76°18' W 167°24'145 9.1 140 / 13987.5 -1.9 0.7
2015-Jan-17 04:00S 75°42' W 157°42'17 8.7 260 / 4989.8 -1.5 0.6
2015-Jan-17 02:00S 75°36' W 156°36'4110.3 220 / 4989.7 0.1 0.5
2015-Jan-16 22:00S 75°12' W 154°24'12310.3 160 / 10988.7 0.7 -0.0
2015-Jan-16 10:00S 73°36' W 149°36'6010.0 150 / 19982.0 -1.4 1.4
2015-Jan-16 04:00S 72°42' W 148°06'16 7.8 150 / 16980.1 -1.1 1.7
2015-Jan-16 02:00S 72°36' W 147°18'16 7.8 130 / 14979.9 -1.1 1.7
2015-Jan-16 00:00S 72°30' W 146°30'4210.5 120 / 16979.3 -1.1 1.6
2015-Jan-15 20:00S 72°06' W 144°36'13 6.3 120 / 16977.5 -1.3 1.7
2015-Jan-15 18:00S 72°00' W 144°00'73 9.1 120 / 17977.5 0.7 1.7
2015-Jan-15 10:00S 71°54' W 140°06'20 9.8 110 / 19978.9 -0.9 1.6
2015-Jan-15 08:00S 72°00' W 139°06'39 9.7 070 / 17979.5 -1.4 1.6
2015-Jan-15 04:00S 72°12' W 137°06'18 8.8 100 / 29982.6 -1.5 1.2
2015-Jan-15 02:00S 72°06' W 136°12'271 8.5 120 / 25984.5 -0.8 1.1
2015-Jan-13 18:00S 70°30' W 123°00'2211.0 250 / 3986.0 0.1 -0.0
2015-Jan-13 16:00S 70°30' W 121°54'16010.0 160 / 8983.8 -0.3 -0.0
2015-Jan-13 00:00S 69°48' W 114°18'0 0.0 360 / 9979.3 -0.6 0.5
2015-Jan-12 22:00S 69°48' W 114°18'10 5.2 140 / 11980.0 -0.5 0.6
2015-Jan-12 20:00S 69°48' W 113°48'2411.8 340 / 10980.6 -0.7 -0.0
2015-Jan-12 18:00S 69°42' W 112°42'2411.9 300 / 9981.0 -1.1 0.1
2015-Jan-12 16:00S 69°36' W 111°36'2411.9 310 / 16981.0 -0.8 0.2
2015-Jan-12 14:00S 69°30' W 110°30'2412.0 340 / 15981.9 -0.8 -0.0
2015-Jan-12 12:00S 69°24' W 109°24'4812.0 320 / 16983.0 -0.7 0.2
2015-Jan-12 08:00S 69°12' W 107°12'7111.8 300 / 16984.1 -0.5 0.3
2015-Jan-12 02:00S 68°54' W 104°00'2512.4 340 / 9983.9 -0.6 0.2
2015-Jan-12 00:00S 68°42' W 103°00'2512.4 340 / 11984.4 -0.6 0.5
2015-Jan-11 22:00S 68°36' W 101°54'2512.4 350 / 7984.9 0.1 0.5
2015-Jan-11 20:00S 68°30' W 100°48'2311.4 360 / 7985.2 0.2 0.3
2015-Jan-11 18:00S 68°24' W 099°48'2311.5 340 / 7985.3 0.1 0.5
2015-Jan-11 16:00S 68°18' W 098°48'2311.5 360 / 5985.3 -0.1 0.4
2015-Jan-11 14:00S 68°12' W 097°48'2311.6 030 / 6985.4 -0.1 0.3
2015-Jan-11 12:00S 68°06' W 096°48'2512.7 330 / 3985.3 -0.0 0.7
2015-Jan-11 10:00S 68°00' W 095°42'2311.7 110 / 3984.9 0.1 0.5
2015-Jan-11 08:00S 67°54' W 094°42'4912.3 140 / 7984.1 -0.2 0.8
2015-Jan-11 04:00S 67°42' W 092°36'2612.9 160 / 14981.6 -0.3 0.5
2015-Jan-11 02:00S 67°30' W 091°36'2411.9 160 / 15980.4 -0.0 0.4
2015-Jan-11 00:00S 67°24' W 090°36'2411.9 150 / 17979.0 -0.0 0.2
2015-Jan-10 22:00S 67°18' W 089°36'2311.6 130 / 7978.6 -0.0 0.3
2015-Jan-10 20:00S 67°18' W 088°36'4611.4 120 / 12977.7 0.2 -0.0
2015-Jan-10 16:00S 67°06' W 086°42'2311.7 070 / 9976.5 0.4 0.4
2015-Jan-10 14:00S 67°06' W 085°42'2412.1 060 / 11976.3 -0.1 0.5
2015-Jan-10 12:00S 67°00' W 084°42'2412.1 030 / 8976.3 -0.5 0.4
2015-Jan-10 10:00S 66°54' W 083°42'2412.2 350 / 10976.3 -0.8 0.4
2015-Jan-10 08:00S 66°48' W 082°42'4511.3 340 / 7976.3 0.2 0.4
2015-Jan-10 04:00S 66°42' W 080°48'2211.1 060 / 15977.1 0.6 0.6
2015-Jan-10 02:00S 66°36' W 079°54'19 9.5 060 / 15978.1 0.7 0.5
2015-Jan-10 00:00S 66°36' W 079°06'2512.3 060 / 17979.4 0.7 0.8
2015-Jan-09 22:00S 66°30' W 078°06'2512.4 050 / 13981.2 0.8 0.7
2015-Jan-09 20:00S 66°24' W 077°06'2512.4 030 / 11982.6 0.2 0.8
2015-Jan-09 18:00S 66°18' W 076°06'2412.1 330 / 7983.3 -1.0 0.9
2015-Jan-09 16:00S 66°18' W 075°06'2311.3 320 / 12983.7 0.6 1.1
2015-Jan-09 14:00S 66°12' W 074°12'2311.4 040 / 14984.8 0.4 1.0
2015-Jan-09 12:00S 66°00' W 073°24'2512.4 030 / 14986.5 0.5 1.2
2015-Jan-09 10:00S 65°42' W 072°42'2311.7 010 / 13988.2 0.7 1.3
2015-Jan-09 08:00S 65°24' W 072°06'   320 / 9989.5 0.1 1.5
Track history (hours):
 
Tides and Currents Weather Stations Pressure Air Temp Water Temp Dewpoint Dewpoint Depression Visibility Wind Speed Wind Dir Waves Ship Positions

Oceanographic research ship Nathaniel B. Palmer (USA)

Contact: Ethan Norris, ethan.norris.contractor@usap.gov

Detailed information on ship capabilities available from University of Delaware's Ocean Information Center and ARCUS's ALIAS (Arctic Logistics Information and Support) project.

Owner: OFFSHORE SERVICE VESSELS, GALLIANO, LA. More information available from US FCC via Universal Licensing System and Coast Guard Vessel Documentation Center.

Last reported at 2015-Jan-19 08:00 UTC. Time now 2015-Jan-30 06:18 UTC.
Position S 77°00' E 168°36'.
Warning: this ship's position is 10 days out of date.

Type: Other ship. MMSI: 366610000.

Wind from 330 at 3 knots

Barometer 984.4 mb
Air temperature -2.1 ° C
Water temperature 1.1 ° C

Date/timePositionNaut miles runAvg speedWind from/ knotsBaromVisibWave heightAir tempDewpointWater temp
2015-Jan-19 08:00S 77°00' E 168°36'34 8.6 330 / 3984.4 -2.1 1.1
2015-Jan-19 04:00S 76°54' E 171°06'2010.2 190 / 34979.8 -5.7 1.1
2015-Jan-19 02:00S 76°54' E 172°36'19 9.5 180 / 25979.6 -4.4 1.1
2015-Jan-19 00:00S 76°54' E 174°00'19 9.5 150 / 21979.5 -2.1 1.1
2015-Jan-18 22:00S 76°54' E 175°24'132 9.4 130 / 21978.8 -1.2 0.8
2015-Jan-18 08:00S 77°00' W 174°54'37 9.3 120 / 19983.3 -2.1 1.2
2015-Jan-18 04:00S 76°42' W 172°30'19 9.5 130 / 17984.6 -2.2 1.3
2015-Jan-18 02:00S 76°36' W 171°12'18 8.9 130 / 18985.6 -2.1 0.7
2015-Jan-18 00:00S 76°30' W 170°00'19 9.6 130 / 15986.6 -2.1 1.0
2015-Jan-17 22:00S 76°24' W 168°42'19 9.7 140 / 14987.3 -2.0 0.8
2015-Jan-17 20:00S 76°18' W 167°24'145 9.1 140 / 13987.5 -1.9 0.7
2015-Jan-17 04:00S 75°42' W 157°42'17 8.7 260 / 4989.8 -1.5 0.6
2015-Jan-17 02:00S 75°36' W 156°36'4110.3 220 / 4989.7 0.1 0.5
2015-Jan-16 22:00S 75°12' W 154°24'12310.3 160 / 10988.7 0.7 -0.0
2015-Jan-16 10:00S 73°36' W 149°36'6010.0 150 / 19982.0 -1.4 1.4
2015-Jan-16 04:00S 72°42' W 148°06'16 7.8 150 / 16980.1 -1.1 1.7
2015-Jan-16 02:00S 72°36' W 147°18'16 7.8 130 / 14979.9 -1.1 1.7
2015-Jan-16 00:00S 72°30' W 146°30'4210.5 120 / 16979.3 -1.1 1.6
2015-Jan-15 20:00S 72°06' W 144°36'13 6.3 120 / 16977.5 -1.3 1.7
2015-Jan-15 18:00S 72°00' W 144°00'73 9.1 120 / 17977.5 0.7 1.7
2015-Jan-15 10:00S 71°54' W 140°06'20 9.8 110 / 19978.9 -0.9 1.6
2015-Jan-15 08:00S 72°00' W 139°06'39 9.7 070 / 17979.5 -1.4 1.6
2015-Jan-15 04:00S 72°12' W 137°06'18 8.8 100 / 29982.6 -1.5 1.2
2015-Jan-15 02:00S 72°06' W 136°12'271 8.5 120 / 25984.5 -0.8 1.1
2015-Jan-13 18:00S 70°30' W 123°00'2211.0 250 / 3986.0 0.1 -0.0
2015-Jan-13 16:00S 70°30' W 121°54'16010.0 160 / 8983.8 -0.3 -0.0
2015-Jan-13 00:00S 69°48' W 114°18'0 0.0 360 / 9979.3 -0.6 0.5
2015-Jan-12 22:00S 69°48' W 114°18'10 5.2 140 / 11980.0 -0.5 0.6
2015-Jan-12 20:00S 69°48' W 113°48'2411.8 340 / 10980.6 -0.7 -0.0
2015-Jan-12 18:00S 69°42' W 112°42'2411.9 300 / 9981.0 -1.1 0.1
2015-Jan-12 16:00S 69°36' W 111°36'2411.9 310 / 16981.0 -0.8 0.2
2015-Jan-12 14:00S 69°30' W 110°30'2412.0 340 / 15981.9 -0.8 -0.0
2015-Jan-12 12:00S 69°24' W 109°24'4812.0 320 / 16983.0 -0.7 0.2
2015-Jan-12 08:00S 69°12' W 107°12'7111.8 300 / 16984.1 -0.5 0.3
2015-Jan-12 02:00S 68°54' W 104°00'2512.4 340 / 9983.9 -0.6 0.2
2015-Jan-12 00:00S 68°42' W 103°00'2512.4 340 / 11984.4 -0.6 0.5
2015-Jan-11 22:00S 68°36' W 101°54'2512.4 350 / 7984.9 0.1 0.5
2015-Jan-11 20:00S 68°30' W 100°48'2311.4 360 / 7985.2 0.2 0.3
2015-Jan-11 18:00S 68°24' W 099°48'2311.5 340 / 7985.3 0.1 0.5
2015-Jan-11 16:00S 68°18' W 098°48'2311.5 360 / 5985.3 -0.1 0.4
2015-Jan-11 14:00S 68°12' W 097°48'2311.6 030 / 6985.4 -0.1 0.3
2015-Jan-11 12:00S 68°06' W 096°48'2512.7 330 / 3985.3 -0.0 0.7
2015-Jan-11 10:00S 68°00' W 095°42'2311.7 110 / 3984.9 0.1 0.5
2015-Jan-11 08:00S 67°54' W 094°42'4912.3 140 / 7984.1 -0.2 0.8
2015-Jan-11 04:00S 67°42' W 092°36'2612.9 160 / 14981.6 -0.3 0.5
2015-Jan-11 02:00S 67°30' W 091°36'2411.9 160 / 15980.4 -0.0 0.4
2015-Jan-11 00:00S 67°24' W 090°36'2411.9 150 / 17979.0 -0.0 0.2
2015-Jan-10 22:00S 67°18' W 089°36'2311.6 130 / 7978.6 -0.0 0.3
2015-Jan-10 20:00S 67°18' W 088°36'4611.4 120 / 12977.7 0.2 -0.0
2015-Jan-10 16:00S 67°06' W 086°42'2311.7 070 / 9976.5 0.4 0.4
2015-Jan-10 14:00S 67°06' W 085°42'2412.1 060 / 11976.3 -0.1 0.5
2015-Jan-10 12:00S 67°00' W 084°42'2412.1 030 / 8976.3 -0.5 0.4
2015-Jan-10 10:00S 66°54' W 083°42'2412.2 350 / 10976.3 -0.8 0.4
2015-Jan-10 08:00S 66°48' W 082°42'4511.3 340 / 7976.3 0.2 0.4
2015-Jan-10 04:00S 66°42' W 080°48'2211.1 060 / 15977.1 0.6 0.6
2015-Jan-10 02:00S 66°36' W 079°54'19 9.5 060 / 15978.1 0.7 0.5
2015-Jan-10 00:00S 66°36' W 079°06'2512.3 060 / 17979.4 0.7 0.8
2015-Jan-09 22:00S 66°30' W 078°06'2512.4 050 / 13981.2 0.8 0.7
2015-Jan-09 20:00S 66°24' W 077°06'2512.4 030 / 11982.6 0.2 0.8
2015-Jan-09 18:00S 66°18' W 076°06'2412.1 330 / 7983.3 -1.0 0.9
2015-Jan-09 16:00S 66°18' W 075°06'2311.3 320 / 12983.7 0.6 1.1
2015-Jan-09 14:00S 66°12' W 074°12'2311.4 040 / 14984.8 0.4 1.0
2015-Jan-09 12:00S 66°00' W 073°24'2512.4 030 / 14986.5 0.5 1.2
2015-Jan-09 10:00S 65°42' W 072°42'2311.7 010 / 13988.2 0.7 1.3
2015-Jan-09 08:00S 65°24' W 072°06'   320 / 9989.5 0.1 1.5

Dump ship's entire track history